Time;durP1;ratioP1;P1;durP2;ratioP2;P2;SDS_P1;SDS_P2;PMS_P1;PMS_P2;Temp;Humidity;BMP_temperature;BMP_pressure;BME280_temperature;BME280_humidity;BME280_pressure;Samples;Min_cycle;Max_cycle;Signal;HPM_P1;HPM_P2
2022/05/18 00:01:59;;;;;;;;;;;18.30;73.00;;;17.56;68.02;95976.84;4096108;34;19905;-87
2022/05/18 00:04:38;;;;;;;;;;;18.30;73.00;;;17.56;67.92;95974.88;4096983;34;19909;-87
2022/05/18 00:07:12;;;;;;;;;;;18.30;73.00;;;17.55;68.12;95973.28;4096487;34;19977;-87
2022/05/18 00:09:43;;;;;;;;;;;18.30;73.00;;;17.56;68.07;95968.53;4095992;34;20215;-87
2022/05/18 00:12:15;;;;;;;;;;;18.30;73.10;;;17.56;68.02;95971.31;4074000;34;19976;-87
2022/05/18 00:14:48;;;;;;;;;;;18.30;73.10;;;17.55;68.03;95964.13;4074083;34;19911;-87
2022/05/18 00:17:20;;;;;;;;;;;18.30;73.00;;;17.54;68.02;95962.50;4073292;34;19904;-87
2022/05/18 00:19:55;;;;;;;;;;;18.30;73.00;;;17.55;68.45;95970.50;4095858;34;19905;-87
2022/05/18 00:22:28;;;;;;;;;;;18.30;73.00;;;17.54;67.96;95970.81;4073842;34;19905;-87
2022/05/18 00:25:05;;;;;;;;;;;18.30;73.00;;;17.54;67.84;95973.56;4073884;34;19941;-86
2022/05/18 00:27:35;;;;;;;;;;;18.30;73.00;;;17.54;68.29;95977.16;4075701;34;19916;-87
2022/05/18 00:30:12;;;;;;;;;;;18.30;73.10;;;17.54;68.08;95984.63;4075647;34;20055;-87
2022/05/18 00:32:50;;;;;;;;;;;18.30;73.00;;;17.54;68.06;95995.72;4098298;34;19912;-87
2022/05/18 00:35:22;;;;;;;;;;;18.30;73.10;;;17.53;68.21;96005.97;4076334;34;20136;-87
2022/05/18 00:37:53;;;;;;;;;;;18.30;73.00;;;17.53;68.03;96010.69;4098911;34;19912;-87
2022/05/18 00:40:28;;;;;;;;;;;18.30;73.00;;;17.52;67.43;96009.06;4098040;34;20155;-87
2022/05/18 00:43:03;;;;;;;;;;;18.30;73.10;;;17.52;68.03;96015.41;4098208;34;20124;-87
2022/05/18 00:45:32;;;;;;;;;;;18.30;73.00;;;17.51;67.97;96016.56;4098123;34;20020;-87
2022/05/18 00:48:01;;;;;;;;;;;18.30;73.10;;;17.51;67.88;96013.78;4075452;34;20032;-87
2022/05/18 00:50:32;;;;;;;;;;;18.30;73.00;;;17.51;68.14;96018.50;4098553;34;20020;-86
2022/05/18 00:53:04;;;;;;;;;;;18.30;73.10;;;17.50;68.01;96017.69;4097934;34;20113;-86
2022/05/18 00:55:35;;;;;;;;;;;18.30;73.10;;;17.49;68.01;96016.84;4075794;34;19912;-88
2022/05/18 00:58:09;;;;;;;;;;;18.30;73.00;;;17.51;68.10;96015.72;4098560;34;20027;-87
2022/05/18 01:00:38;;;;;;;;;;;18.30;73.00;;;17.48;67.82;96018.03;4097912;34;20027;-87
2022/05/18 01:03:10;;;;;;;;;;;18.30;73.00;;;17.49;67.81;96016.84;4097806;34;19904;-87
2022/05/18 01:05:39;;;;;;;;;;;18.30;72.90;;;17.49;67.62;96022.38;4097637;34;19904;-87
2022/05/18 01:08:09;;;;;;;;;;;18.20;72.70;;;17.48;67.78;96026.31;4075372;34;19912;-87
2022/05/18 01:10:37;;;;;;;;;;;18.20;72.70;;;17.48;67.78;96025.50;4075630;34;20124;-87
2022/05/18 01:13:06;;;;;;;;;;;18.20;72.70;;;17.47;67.68;96041.28;4098690;34;20138;-88
2022/05/18 01:15:35;;;;;;;;;;;18.20;72.60;;;17.47;68.02;96035.75;4098715;34;20117;-87
2022/05/18 01:18:04;;;;;;;;;;;18.20;72.60;;;17.48;67.85;96044.84;4075324;34;19964;-88
2022/05/18 01:20:36;;;;;;;;;;;18.20;72.60;;;17.45;67.74;96038.03;4075582;34;20216;-88
2022/05/18 01:23:17;;;;;;;;;;;18.20;72.50;;;17.45;67.71;96038.03;4097707;34;19983;-88
2022/05/18 01:25:56;;;;;;;;;;;18.20;72.50;;;17.45;67.79;96046.31;4075744;34;20172;-87
2022/05/18 01:28:32;;;;;;;;;;;18.20;72.60;;;17.45;67.76;96049.09;4097376;34;20476;-88
2022/05/18 01:31:04;;;;;;;;;;;18.20;72.60;;;17.45;67.83;96048.25;4097520;34;20105;-87
2022/05/18 01:33:33;;;;;;;;;;;18.20;72.60;;;17.45;67.96;96059.31;4097700;34;20240;-87
2022/05/18 01:36:02;;;;;;;;;;;18.20;72.60;;;17.42;67.92;96044.19;4075054;34;20376;-88
2022/05/18 01:38:31;;;;;;;;;;;18.20;72.80;;;17.44;67.86;96058.53;4075275;34;19927;-87
2022/05/18 01:41:05;;;;;;;;;;;18.20;72.70;;;17.44;67.89;96066.81;4075297;34;19904;-87
2022/05/18 01:43:36;;;;;;;;;;;18.20;72.80;;;17.41;67.72;96061.13;4097474;34;20224;-87
2022/05/18 01:46:07;;;;;;;;;;;18.20;72.80;;;17.44;67.81;96069.59;4097090;34;20105;-87
2022/05/18 01:48:38;;;;;;;;;;;18.20;72.70;;;17.43;67.73;96073.50;4097437;34;19905;-87
2022/05/18 01:51:07;;;;;;;;;;;18.20;72.70;;;17.41;67.69;96072.19;4097187;34;20134;-87
2022/05/18 01:53:35;;;;;;;;;;;18.20;72.70;;;17.42;67.74;96065.53;4097330;34;20092;-86
2022/05/18 01:56:08;;;;;;;;;;;18.20;72.80;;;17.41;67.86;96064.69;4096713;34;19905;-87
2022/05/18 01:58:38;;;;;;;;;;;18.20;72.70;;;17.41;67.71;96074.97;4097288;34;20024;-86
2022/05/18 02:01:06;;;;;;;;;;;18.20;72.70;;;17.40;67.68;96079.66;4074993;34;19916;-88
2022/05/18 02:03:35;;;;;;;;;;;18.20;72.60;;;17.38;67.58;96070.84;4075094;34;19912;-87
2022/05/18 02:06:04;;;;;;;;;;;18.20;72.50;;;17.39;67.54;96078.03;4096554;34;20479;-87
2022/05/18 02:08:32;;;;;;;;;;;18.20;72.40;;;17.39;67.42;96085.53;4096994;34;20019;-86
2022/05/18 02:11:01;;;;;;;;;;;18.20;72.40;;;17.39;67.36;96078.03;4074969;34;20216;-87
2022/05/18 02:13:30;;;;;;;;;;;18.20;72.30;;;17.38;67.36;96065.31;4097051;34;19927;-87
2022/05/18 02:16:02;;;;;;;;;;;18.20;72.20;;;17.37;67.27;96063.69;4074694;34;20130;-87
2022/05/18 02:18:31;;;;;;;;;;;18.10;72.10;;;17.38;67.06;96065.31;4074901;34;20263;-86
2022/05/18 02:21:02;;;;;;;;;;;18.20;71.90;;;17.36;67.03;96056.53;4097837;34;19906;-87
2022/05/18 02:23:31;;;;;;;;;;;18.10;71.80;;;17.35;66.85;96054.91;4074889;34;19911;-87
2022/05/18 02:26:01;;;;;;;;;;;18.10;71.60;;;17.36;66.90;96056.53;4096666;34;20483;-87
2022/05/18 02:28:30;;;;;;;;;;;18.10;71.60;;;17.35;66.92;96065.16;4074550;34;20470;-87
2022/05/18 02:31:00;;;;;;;;;;;18.10;71.50;;;17.35;66.76;96079.81;4074894;34;20485;-87
2022/05/18 02:33:28;;;;;;;;;;;18.10;71.40;;;17.34;66.73;96097.53;4074711;34;20134;-87
2022/05/18 02:35:57;;;;;;;;;;;18.10;71.40;;;17.33;66.55;96113.31;4074736;34;20215;-87
2022/05/18 02:38:26;;;;;;;;;;;18.10;71.40;;;17.33;66.55;96124.38;4075122;34;19912;-87
2022/05/18 02:40:57;;;;;;;;;;;18.10;71.40;;;17.32;66.50;96133.81;4052945;34;20084;-86
2022/05/18 02:43:26;;;;;;;;;;;18.10;71.50;;;17.33;66.69;96132.69;4074863;34;19958;-87
2022/05/18 02:46:03;;;;;;;;;;;18.10;71.50;;;17.34;66.69;96141.81;4074515;34;20154;-87
2022/05/18 02:48:32;;;;;;;;;;;18.10;71.50;;;17.32;66.54;96144.06;4096976;34;19905;-86
2022/05/18 02:51:01;;;;;;;;;;;18.10;71.40;;;17.33;66.54;96148.47;4097453;34;20009;-86
2022/05/18 02:53:29;;;;;;;;;;;18.10;71.30;;;17.32;66.38;96144.06;4052749;34;20405;-86
2022/05/18 02:56:05;;;;;;;;;;;18.10;71.20;;;17.32;66.34;96155.16;4096155;34;20010;-87
2022/05/18 02:58:37;;;;;;;;;;;18.10;71.20;;;17.31;66.51;96153.50;4073774;34;20121;-86
2022/05/18 03:01:09;;;;;;;;;;;18.10;71.30;;;17.31;66.45;96159.84;4096913;34;20297;-86
2022/05/18 03:03:37;;;;;;;;;;;18.10;71.20;;;17.30;66.39;96169.28;4074580;34;19905;-86
2022/05/18 03:06:06;;;;;;;;;;;18.10;71.30;;;17.30;66.52;96168.47;4073801;34;19904;-86
2022/05/18 03:08:36;;;;;;;;;;;18.10;71.30;;;17.30;66.39;96187.84;4096545;34;19954;-87
2022/05/18 03:11:05;;;;;;;;;;;18.10;71.10;;;17.30;66.51;96191.41;4074291;34;20014;-86
2022/05/18 03:13:35;;;;;;;;;;;18.10;71.20;;;17.29;66.44;96194.50;4074325;34;19911;-86
2022/05/18 03:16:03;;;;;;;;;;;18.10;71.30;;;17.29;66.53;96189.81;4092642;34;19904;-87
2022/05/18 03:18:34;;;;;;;;;;;18.10;71.40;;;17.29;66.62;96169.59;4074371;34;20165;-86
2022/05/18 03:23:49;;;;;;;;;;;18.10;71.40;;;17.29;66.67;96183.44;4096361;34;19958;-87
2022/05/18 03:26:20;;;;;;;;;;;18.10;71.30;;;17.28;66.42;96187.34;4095941;34;20105;-87
2022/05/18 03:28:50;;;;;;;;;;;18.10;71.20;;;17.26;66.35;96184.88;4074123;34;19905;-87
2022/05/18 03:31:18;;;;;;;;;;;18.10;71.20;;;17.28;66.47;96188.16;4074031;34;20339;-86
2022/05/18 03:33:48;;;;;;;;;;;18.10;71.30;;;17.27;66.42;96205.06;4096137;34;19905;-88
2022/05/18 03:36:18;;;;;;;;;;;18.10;71.20;;;17.26;66.38;96212.56;4095744;34;20112;-87
2022/05/18 03:38:48;;;;;;;;;;;18.10;71.20;;;17.25;66.64;96216.47;4096313;34;19905;-87
2022/05/18 03:41:18;;;;;;;;;;;18.10;71.30;;;17.26;66.58;96228.31;4074018;34;19911;-87
2022/05/18 03:43:46;;;;;;;;;;;18.10;71.40;;;17.27;66.51;96230.78;4073985;34;19905;-87
2022/05/18 03:46:15;;;;;;;;;;;18.10;71.30;;;17.25;66.29;96227.53;4073496;34;19920;-87
2022/05/18 03:48:44;;;;;;;;;;;18.00;71.30;;;17.26;66.54;96233.84;4073909;34;19912;-87
2022/05/18 03:51:16;;;;;;;;;;;18.00;71.30;;;17.26;66.66;96236.63;4073924;34;19912;-87
2022/05/18 03:53:45;;;;;;;;;;;18.00;71.30;;;17.26;66.54;96233.84;4074079;34;19905;-87
2022/05/18 03:56:13;;;;;;;;;;;18.00;71.30;;;17.24;66.60;96248.00;4073492;34;20118;-86
2022/05/18 03:58:42;;;;;;;;;;;18.00;71.30;;;17.26;66.41;96250.47;4096872;34;19911;-87
2022/05/18 04:01:11;;;;;;;;;;;18.00;71.40;;;17.24;66.56;96264.63;4095889;34;19927;-86
2022/05/18 04:03:41;;;;;;;;;;;18.00;72.20;;;17.23;66.68;96260.22;4095686;34;19905;-87
2022/05/18 04:06:10;;;;;;;;;;;18.00;71.40;;;17.24;66.65;96269.31;4095719;34;19911;-87
2022/05/18 04:08:40;;;;;;;;;;;18.00;71.40;;;17.24;67.12;96277.63;4095858;34;19912;-86
2022/05/18 04:11:09;;;;;;;;;;;18.00;71.20;;;17.23;66.44;96287.06;4095818;34;19911;-87
2022/05/18 04:13:37;;;;;;;;;;;18.00;71.20;;;17.23;66.32;96289.84;4096770;34;19912;-86
2022/05/18 04:16:06;;;;;;;;;;;18.00;71.20;;;17.23;66.26;96292.59;4051633;34;20087;-87
2022/05/18 04:18:34;;;;;;;;;;;18.00;71.20;;;17.22;66.50;96297.31;4073795;34;19905;-87
2022/05/18 04:21:03;;;;;;;;;;;18.00;71.10;;;17.23;66.44;96300.91;4096762;34;19912;-87
2022/05/18 04:23:32;;;;;;;;;;;18.00;71.20;;;17.22;66.39;96300.06;4073811;34;20232;-88
2022/05/18 04:26:02;;;;;;;;;;;18.00;71.20;;;17.22;66.23;96304.78;4073481;34;19911;-87
2022/05/18 04:28:32;;;;;;;;;;;18.00;71.20;;;17.22;66.28;96302.03;4095857;34;19989;-87
2022/05/18 04:31:01;;;;;;;;;;;18.00;71.20;;;17.21;66.37;96309.50;4073294;34;20321;-86
2022/05/18 04:33:29;;;;;;;;;;;18.00;71.10;;;17.22;66.55;96299.25;4096710;34;19912;-87
2022/05/18 04:36:02;;;;;;;;;;;18.00;71.10;;;17.20;66.20;96302.31;4096512;34;20178;-87
2022/05/18 04:38:32;;;;;;;;;;;18.00;70.90;;;17.20;65.81;96301.53;4073571;34;19927;-86
2022/05/18 04:41:03;;;;;;;;;;;18.00;70.80;;;17.20;66.18;96312.59;4073656;34;20039;-87
2022/05/18 04:43:33;;;;;;;;;;;18.00;70.80;;;17.20;66.06;96309.81;4073690;34;19905;-86
2022/05/18 04:46:01;;;;;;;;;;;18.00;70.80;;;17.21;66.13;96314.22;4051463;34;19904;-87
2022/05/18 04:48:31;;;;;;;;;;;18.00;70.80;;;17.20;66.14;96310.63;4096558;34;19904;-87
2022/05/18 04:51:04;;;;;;;;;;;18.00;70.80;;;17.20;66.02;96307.06;4073120;34;20249;-87
2022/05/18 04:53:34;;;;;;;;;;;18.00;70.70;;;17.18;66.01;96316.47;4096512;34;19957;-86
2022/05/18 04:56:05;;;;;;;;;;;18.00;70.70;;;17.19;65.83;96314.53;4073080;34;19912;-88
2022/05/18 04:58:34;;;;;;;;;;;18.00;70.80;;;17.18;65.73;96315.63;4073535;34;19957;-87
2022/05/18 05:01:04;;;;;;;;;;;18.00;70.80;;;17.19;66.14;96322.81;4095502;34;19911;-87
2022/05/18 05:03:33;;;;;;;;;;;18.00;70.90;;;17.19;66.22;96320.06;4073564;34;20136;-87
2022/05/18 05:06:02;;;;;;;;;;;18.00;71.00;;;17.21;66.34;96319.75;4073211;34;20004;-88
2022/05/18 05:08:31;;;;;;;;;;;18.00;71.00;;;17.20;66.17;96321.69;4095411;34;19905;-87
2022/05/18 05:10:59;;;;;;;;;;;18.00;70.90;;;17.20;65.93;96318.13;4073432;34;19911;-88
2022/05/18 05:13:29;;;;;;;;;;;18.00;70.70;;;17.20;65.83;96309.81;4097013;34;19904;-87
2022/05/18 05:16:03;;;;;;;;;;;18.00;70.60;;;17.20;65.76;96307.06;4075474;34;20057;-87
2022/05/18 05:18:32;;;;;;;;;;;18.00;70.30;;;17.20;65.61;96315.34;4071316;34;20127;-87
2022/05/18 05:21:00;;;;;;;;;;;18.00;70.40;;;17.20;65.58;96318.94;4071209;34;20331;-87
2022/05/18 05:23:29;;;;;;;;;;;18.00;70.20;;;17.24;65.31;96319.13;4071232;34;19905;-87
2022/05/18 05:25:58;;;;;;;;;;;18.00;70.10;;;17.27;65.82;96329.56;4070875;34;19930;-87
2022/05/18 05:28:26;;;;;;;;;;;18.00;70.40;;;17.29;65.90;96322.63;4093053;34;19912;-87
2022/05/18 05:31:01;;;;;;;;;;;18.10;70.60;;;17.31;65.78;96325.06;4071950;34;19905;-87
2022/05/18 05:33:34;;;;;;;;;;;18.10;70.70;;;17.35;65.48;96341.84;4071001;34;19912;-87
2022/05/18 05:36:02;;;;;;;;;;;18.10;70.20;;;17.35;64.92;96336.31;4071649;34;20139;-88
2022/05/18 05:38:33;;;;;;;;;;;18.10;69.70;;;17.35;64.98;96331.63;4068579;34;20106;-87
2022/05/18 05:41:02;;;;;;;;;;;18.10;69.60;;;17.36;64.87;96343.50;4092990;34;19912;-87
2022/05/18 05:43:31;;;;;;;;;;;18.20;69.40;;;17.37;65.49;96340.41;4070984;34;19982;-86
2022/05/18 05:46:03;;;;;;;;;;;18.20;70.10;;;17.39;65.65;96346.44;4049076;34;19905;-88
2022/05/18 05:48:32;;;;;;;;;;;18.20;70.50;;;17.39;65.55;96349.22;4071011;34;19905;-87
2022/05/18 05:51:01;;;;;;;;;;;18.20;70.40;;;17.40;65.81;96353.63;4048969;34;20386;-87
2022/05/18 05:53:29;;;;;;;;;;;18.20;70.50;;;17.39;65.77;96345.63;4081190;34;20191;-87
2022/05/18 05:55:58;;;;;;;;;;;18.20;70.40;;;17.41;65.58;96357.22;4075091;34;19996;-88
2022/05/18 05:58:27;;;;;;;;;;;18.20;70.20;;;17.43;65.96;96364.06;4075361;34;20137;-88
2022/05/18 06:00:59;;;;;;;;;;;18.20;70.50;;;17.47;65.68;96362.34;4075227;34;19987;-88
2022/05/18 06:03:29;;;;;;;;;;;18.20;70.40;;;17.48;65.58;96363.97;4097239;34;19904;-87
2022/05/18 06:05:57;;;;;;;;;;;18.30;70.30;;;17.47;65.25;96367.88;4074959;34;19911;-87
2022/05/18 06:08:26;;;;;;;;;;;18.30;70.10;;;17.49;65.25;96364.78;4097265;34;20386;-89
2022/05/18 06:10:55;;;;;;;;;;;18.30;69.90;;;17.48;64.85;96374.22;4096993;34;19904;-88
2022/05/18 06:13:23;;;;;;;;;;;18.30;69.50;;;17.46;64.41;96382.84;4098052;34;20166;-88
2022/05/18 06:15:52;;;;;;;;;;;18.20;68.80;;;17.42;64.40;96370.75;4075142;34;20086;-88
2022/05/18 06:18:20;;;;;;;;;;;18.20;69.00;;;17.41;64.80;96380.16;4074891;34;19904;-88
2022/05/18 06:20:50;;;;;;;;;;;18.20;69.00;;;17.40;63.96;96389.59;4097161;34;19919;-86
2022/05/18 06:23:28;;;;;;;;;;;18.20;68.70;;;17.38;64.55;96397.38;4096409;34;19913;-86
2022/05/18 06:26:03;;;;;;;;;;;18.20;69.00;;;17.35;64.53;96386.97;4096595;34;20449;-87
2022/05/18 06:28:32;;;;;;;;;;;18.20;69.00;;;17.33;64.17;96394.75;4074918;34;20227;-87
2022/05/18 06:31:01;;;;;;;;;;;18.10;68.70;;;17.29;64.19;96388.19;4074967;34;20047;-86
2022/05/18 06:33:29;;;;;;;;;;;18.10;68.70;;;17.30;64.19;96409.19;4096742;34;19908;-86
2022/05/18 06:35:59;;;;;;;;;;;18.00;68.80;;;17.28;64.36;96403.97;4096634;34;19905;-86
2022/05/18 06:38:28;;;;;;;;;;;18.10;68.80;;;17.28;64.63;96405.91;4096889;34;20224;-87
2022/05/18 06:43:43;;;;;;;;;;;18.10;69.00;;;17.25;64.39;96412.06;4074686;34;20097;-88
2022/05/18 06:46:12;;;;;;;;;;;18.10;68.90;;;17.25;64.33;96417.59;4097494;34;20038;-87
2022/05/18 06:48:41;;;;;;;;;;;18.00;68.90;;;17.23;64.46;96422.63;4097346;34;20042;-87
2022/05/18 06:51:11;;;;;;;;;;;18.00;69.00;;;17.23;64.76;96428.16;4074783;34;19996;-87
2022/05/18 06:53:41;;;;;;;;;;;18.00;69.20;;;17.23;64.76;96425.41;4074615;34;20115;-87
2022/05/18 06:56:09;;;;;;;;;;;18.00;69.40;;;17.23;64.91;96428.16;4074189;34;20179;-88
2022/05/18 06:58:38;;;;;;;;;;;18.00;69.50;;;17.23;64.60;96428.97;4074451;34;19927;-87
2022/05/18 07:01:07;;;;;;;;;;;18.00;69.20;;;17.23;64.79;96440.03;4096604;34;20078;-87
2022/05/18 07:03:36;;;;;;;;;;;18.00;69.30;;;17.21;64.37;96441.50;4074592;34;19936;-86
2022/05/18 07:06:07;;;;;;;;;;;18.00;69.10;;;17.22;64.81;96443.13;4074218;34;19928;-87
2022/05/18 07:08:37;;;;;;;;;;;18.00;69.30;;;17.23;64.70;96436.47;4096445;34;19905;-86
2022/05/18 07:11:06;;;;;;;;;;;18.00;69.20;;;17.22;64.56;96434.81;4074447;34;19904;-86
2022/05/18 07:13:51;;;;;;;;;;;18.00;69.10;;;17.23;65.15;96453.06;4096344;34;20128;-86
2022/05/18 07:16:20;;;;;;;;;;;18.00;69.70;;;17.22;64.89;96457.75;4074045;34;20105;-88
2022/05/18 07:18:49;;;;;;;;;;;18.00;69.60;;;17.22;65.22;96459.72;4096347;34;19960;-87
2022/05/18 07:21:18;;;;;;;;;;;18.00;69.80;;;17.21;65.22;96463.63;4096425;34;19991;-87
2022/05/18 07:23:48;;;;;;;;;;;18.00;70.10;;;17.22;65.73;96468.84;4096344;34;19904;-87
2022/05/18 07:26:17;;;;;;;;;;;18.00;70.30;;;17.22;65.75;96481.84;4095784;34;19953;-87
2022/05/18 07:28:45;;;;;;;;;;;18.00;70.40;;;17.20;65.52;96484.09;4097312;34;19911;-86
2022/05/18 07:31:14;;;;;;;;;;;18.00;70.40;;;17.19;65.87;96486.03;4097089;34;19941;-87
2022/05/18 07:33:42;;;;;;;;;;;18.00;70.40;;;17.17;65.72;96500.19;4096187;34;19905;-87
2022/05/18 07:36:11;;;;;;;;;;;18.00;70.40;;;17.16;65.65;96501.31;4073542;34;19905;-87
2022/05/18 07:38:40;;;;;;;;;;;17.90;70.40;;;17.16;65.94;96511.56;4097170;34;20186;-87
2022/05/18 07:41:12;;;;;;;;;;;17.90;70.40;;;17.17;65.70;96513.19;4097058;34;19905;-86
2022/05/18 07:43:40;;;;;;;;;;;17.90;70.40;;;17.20;66.04;96511.78;4074176;34;20098;-86
2022/05/18 07:46:10;;;;;;;;;;;18.00;70.70;;;17.23;65.90;96513.94;4052007;34;19905;-86
2022/05/18 07:48:39;;;;;;;;;;;18.00;70.80;;;17.27;65.92;96510.25;4073996;34;20367;-86
2022/05/18 07:51:07;;;;;;;;;;;18.00;70.80;;;17.36;65.69;96515.91;4073963;34;19912;-87
2022/05/18 07:53:36;;;;;;;;;;;18.10;70.70;;;17.45;65.51;96513.22;4052372;34;20141;-87
2022/05/18 07:56:05;;;;;;;;;;;18.10;70.50;;;17.53;65.41;96519.97;4095671;34;20117;-86
2022/05/18 07:58:35;;;;;;;;;;;18.20;70.20;;;17.55;65.06;96528.78;4074159;34;19912;-86
2022/05/18 08:01:07;;;;;;;;;;;18.30;69.70;;;17.55;65.05;96531.56;4090873;34;20166;-87
2022/05/18 08:03:35;;;;;;;;;;;18.30;69.70;;;17.56;65.03;96524.91;4069378;34;20169;-86
2022/05/18 08:06:04;;;;;;;;;;;18.30;69.60;;;17.55;65.03;96528.78;4091237;34;20034;-87
2022/05/18 08:08:33;;;;;;;;;;;18.30;69.60;;;17.59;65.01;96532.59;4070469;35;20162;-87
2022/05/18 08:16:35;;;;;;;;;;;18.40;69.10;;;17.66;64.66;96544.06;4095445;34;19909;-88
2022/05/18 08:19:06;;;;;;;;;;;18.40;69.20;;;17.66;64.51;96541.28;4095852;34;20386;-87
2022/05/18 08:21:34;;;;;;;;;;;18.40;69.20;;;17.70;64.64;96547.03;4096817;34;19911;-87
2022/05/18 08:24:03;;;;;;;;;;;18.50;69.30;;;17.71;64.45;96554.22;4095765;34;20363;-87
2022/05/18 08:26:31;;;;;;;;;;;18.50;69.10;;;17.74;64.50;96564.69;4073561;34;19905;-87
2022/05/18 08:29:01;;;;;;;;;;;18.50;69.00;;;17.73;64.29;96568.56;4095952;34;19911;-87
2022/05/18 08:31:30;;;;;;;;;;;18.50;68.90;;;17.72;64.52;96572.47;4073692;34;19916;-87
2022/05/18 08:33:59;;;;;;;;;;;18.50;68.80;;;17.70;64.51;96577.50;4096687;34;20396;-88
2022/05/18 08:36:27;;;;;;;;;;;18.50;68.80;;;17.65;64.48;96572.88;4073238;34;19904;-88
2022/05/18 08:38:56;;;;;;;;;;;18.50;68.80;;;17.66;64.50;96580.06;4095720;34;20170;-87
2022/05/18 08:41:27;;;;;;;;;;;18.40;68.80;;;17.66;64.23;96585.59;4073789;34;19928;-86
2022/05/18 08:43:57;;;;;;;;;;;18.40;68.70;;;17.67;64.24;96587.25;4073710;34;20308;-87
2022/05/18 08:46:35;;;;;;;;;;;18.50;68.80;;;17.67;64.10;96598.31;4095310;34;20154;-88
2022/05/18 08:49:10;;;;;;;;;;;18.50;68.50;;;17.68;64.08;96594.41;4098075;34;20171;-87
2022/05/18 08:51:45;;;;;;;;;;;18.50;68.50;;;17.66;64.08;96596.66;4098207;34;20120;-87
2022/05/18 08:54:34;;;;;;;;;;;18.50;68.50;;;17.68;64.03;96602.72;4075890;34;19947;-87
2022/05/18 08:57:04;;;;;;;;;;;18.50;68.30;;;17.67;63.97;96612.16;4075463;34;19912;-87
2022/05/18 08:59:35;;;;;;;;;;;18.50;68.20;;;17.67;63.90;96611.34;4097706;34;19904;-87
2022/05/18 09:02:11;;;;;;;;;;;18.50;68.20;;;17.66;63.85;96613.28;4075489;34;19911;-87
2022/05/18 09:04:45;;;;;;;;;;;18.50;68.10;;;17.67;63.93;96623.22;4075719;34;19912;-87
2022/05/18 09:07:16;;;;;;;;;;;18.50;68.20;;;17.67;63.80;96622.44;4071025;34;19905;-87
2022/05/18 09:12:36;;;;;;;;;;;18.50;68.40;;;17.67;63.96;96637.06;4098743;34;19912;-88
2022/05/18 09:15:05;;;;;;;;;;;18.50;68.20;;;17.65;63.93;96639.31;4075493;34;20143;-87
2022/05/18 09:17:38;;;;;;;;;;;18.50;68.10;;;17.63;63.76;96633.25;4053481;34;20143;-87
2022/05/18 09:20:15;;;;;;;;;;;18.40;68.00;;;17.63;63.90;96636.03;4075750;34;19911;-87
2022/05/18 09:22:57;;;;;;;;;;;18.40;68.10;;;17.62;63.90;96640.75;4053988;34;19998;-87
2022/05/18 09:25:33;;;;;;;;;;;18.40;68.30;;;17.64;63.86;96648.75;4098508;34;19905;-87
2022/05/18 09:28:12;;;;;;;;;;;18.40;68.00;;;17.59;63.92;96651.63;4053507;34;19904;-87
2022/05/18 09:30:48;;;;;;;;;;;18.40;68.20;;;17.62;63.83;96645.50;4075570;34;19905;-87
2022/05/18 09:33:30;;;;;;;;;;;18.40;68.20;;;17.61;63.94;96655.72;4075831;34;20141;-87
2022/05/18 09:36:24;;;;;;;;;;;18.40;68.20;;;17.60;63.68;96665.16;4074456;34;19904;-88
2022/05/18 09:38:59;;;;;;;;;;;18.40;68.10;;;17.59;63.93;96657.97;4098576;34;19909;-87
2022/05/18 09:41:30;;;;;;;;;;;18.40;68.20;;;17.60;63.91;96661.59;4083086;34;19912;-88
2022/05/18 09:44:01;;;;;;;;;;;18.40;68.20;;;17.57;63.76;96660.22;4098428;34;19911;-87
2022/05/18 09:46:30;;;;;;;;;;;18.40;68.00;;;17.60;63.70;96675.44;4097144;34;19904;-88
2022/05/18 09:49:05;;;;;;;;;;;18.40;68.00;;;17.60;63.44;96680.97;4075421;34;19905;-87
2022/05/18 09:51:34;;;;;;;;;;;18.40;67.80;;;17.59;63.38;96684.84;4097471;34;20388;-87
2022/05/18 09:54:05;;;;;;;;;;;18.40;67.60;;;17.58;63.35;96691.50;4075372;34;19905;-87
2022/05/18 09:56:38;;;;;;;;;;;18.40;67.70;;;17.56;63.06;96694.56;4097005;34;19904;-87
2022/05/18 09:59:11;;;;;;;;;;;18.40;67.40;;;17.56;63.21;96704.84;4097366;34;19912;-87
2022/05/18 10:07:34;;;;;;;;;;;18.30;67.30;;;17.54;62.99;96712.63;4097011;34;19968;-87
2022/05/18 10:10:11;;;;;;;;;;;18.30;67.10;;;17.53;62.88;96714.56;4097160;34;20054;-87
2022/05/18 10:12:46;;;;;;;;;;;18.30;67.10;;;17.53;62.94;96717.34;4075323;34;20186;-86
2022/05/18 10:15:28;;;;;;;;;;;18.30;67.20;;;17.52;62.81;96712.09;4075269;34;19912;-87
2022/05/18 10:17:58;;;;;;;;;;;18.30;67.00;;;17.52;62.74;96714.88;4096799;34;20026;-87
2022/05/18 10:20:30;;;;;;;;;;;18.30;66.90;;;17.49;62.66;96714.34;4075016;34;19948;-86
2022/05/18 10:22:59;;;;;;;;;;;18.30;66.90;;;17.45;62.79;96716.09;4075104;34;19988;-87
2022/05/18 10:25:30;;;;;;;;;;;18.30;67.10;;;17.46;62.75;96726.03;4097092;34;20155;-86
2022/05/18 10:27:58;;;;;;;;;;;18.30;67.00;;;17.46;62.88;96725.19;4097592;34;19904;-87
2022/05/18 10:30:30;;;;;;;;;;;18.30;67.10;;;17.44;63.07;96733.81;4074960;34;20147;-87
2022/05/18 10:33:32;;;;;;;;;;;18.30;67.30;;;17.43;63.33;96726.63;4096880;34;20127;-87
2022/05/18 10:37:20;;;;;;;;;;;;;;;;;;;;;
2022/05/18 10:39:50;;;;;;;;;;;18.20;67.60;;;17.41;63.18;96734.41;4048328;34;20099;-86
2022/05/18 10:42:24;;;;;;;;;;;18.20;67.80;;;17.40;63.38;96732.78;4048760;34;20124;-86
2022/05/18 10:44:53;;;;;;;;;;;18.20;67.80;;;17.40;63.39;96738.31;4048463;34;19905;-86
2022/05/18 10:47:33;;;;;;;;;;;18.20;67.80;;;17.40;63.19;96746.59;4069981;34;20044;-86
2022/05/18 10:50:29;;;;;;;;;;;18.20;67.70;;;17.39;63.39;96758.00;4070120;34;19904;-86
2022/05/18 10:53:00;;;;;;;;;;;18.20;67.70;;;17.37;63.30;96755.50;4058380;34;20085;-86
2022/05/18 10:55:31;;;;;;;;;;;18.20;67.70;;;17.38;63.25;96759.09;4071090;34;20145;-86
2022/05/18 10:58:03;;;;;;;;;;;18.20;67.60;;;17.36;63.21;96758.59;4069555;34;19905;-86
2022/05/18 11:00:41;;;;;;;;;;;18.20;67.50;;;17.36;63.21;96753.06;4070214;34;19912;-86
2022/05/18 11:03:15;;;;;;;;;;;18.20;67.50;;;17.36;63.12;96753.06;4048402;34;20285;-86
2022/05/18 11:05:46;;;;;;;;;;;18.20;67.40;;;17.35;63.18;96773.53;4070808;34;19912;-86
2022/05/18 11:08:16;;;;;;;;;;;18.20;67.40;;;17.33;62.99;96766.38;4069317;34;20117;-86
2022/05/18 11:10:50;;;;;;;;;;;18.10;67.30;;;17.34;63.03;96764.44;4069446;34;20208;-86
2022/05/18 11:13:26;;;;;;;;;;;18.10;67.20;;;17.32;63.03;96766.66;4069925;34;19916;-86
2022/05/18 11:16:02;;;;;;;;;;;18.10;67.20;;;17.32;63.00;96764.72;4069867;34;19989;-85
2022/05/18 11:18:39;;;;;;;;;;;18.10;67.30;;;17.32;62.59;96758.38;4047968;34;19905;-85
2022/05/18 11:21:23;;;;;;;;;;;18.10;66.90;;;17.32;63.28;96775.78;4048150;34;20054;-85
2022/05/18 11:23:57;;;;;;;;;;;18.10;67.40;;;17.31;63.05;96778.88;4069727;34;19953;-85
2022/05/18 11:26:36;;;;;;;;;;;18.10;67.40;;;17.30;63.02;96774.44;4047745;34;19912;-85
2022/05/18 11:29:25;;;;;;;;;;;18.10;67.50;;;17.30;62.81;96769.72;4048067;34;19973;-85
2022/05/18 11:32:10;;;;;;;;;;;18.10;67.30;;;17.29;62.82;96768.09;4069511;34;20089;-85
2022/05/18 11:34:50;;;;;;;;;;;18.10;67.10;;;17.29;62.87;96770.88;4048039;34;20146;-86
2022/05/18 11:37:34;;;;;;;;;;;18.10;67.20;;;17.28;63.28;96769.22;4069096;34;19917;-85
2022/05/18 11:40:11;;;;;;;;;;;18.10;67.70;;;17.28;63.48;96758.16;4047851;34;19905;-86
2022/05/18 11:42:51;;;;;;;;;;;18.10;67.60;;;17.29;63.25;96767.25;4048073;34;19963;-86
2022/05/18 11:45:23;;;;;;;;;;;18.10;67.60;;;17.27;62.42;96759.28;4069157;34;20243;-86
2022/05/18 11:48:02;;;;;;;;;;;18.10;66.70;;;17.29;62.65;96770.03;4069102;34;20418;-86
2022/05/18 11:50:40;;;;;;;;;;;18.10;66.80;;;17.28;62.50;96768.38;4047810;34;20398;-86
2022/05/18 11:53:19;;;;;;;;;;;18.10;66.70;;;17.27;62.66;96761.22;4056452;34;19911;-86
2022/05/18 11:55:57;;;;;;;;;;;18.10;66.90;;;17.27;62.73;96758.44;4074022;34;19911;-85
2022/05/18 11:58:47;;;;;;;;;;;18.10;67.00;;;17.28;62.61;96766.47;4095594;34;19911;-85
2022/05/18 12:01:23;;;;;;;;;;;18.10;67.00;;;17.27;62.87;96762.03;4096032;34;19912;-86